Time,TemperatureF,DewpointF,PressureIn,WindDirection,WindDirectionDegrees,WindSpeedMPH,WindSpeedGustMPH,Humidity,HourlyPrecipIn,Conditions,Clouds,dailyrainin,SolarRadiationWatts/m^2,SoftwareType,DateUTC
2013-08-16 00:02:00,74.0,72.0,-100.00,NE,39,5.0,7.0,95,0.00,,,0.06,0.000000,,2013-08-16 05:02:00,
2013-08-16 02:00:00,72.0,70.0,-100.00,NNE,13,4.0,6.0,92,0.00,,,0.06,0.000000,,2013-08-16 07:00:00,
2013-08-16 02:42:00,72.0,70.0,-100.00,NNE,21,5.0,8.0,93,0.00,,,0.06,0.000000,,2013-08-16 07:42:00,
2013-08-16 02:52:00,72.0,70.0,-100.00,NNE,21,5.0,8.0,93,0.00,,,0.06,0.000000,,2013-08-16 07:52:00,
2013-08-16 03:01:00,72.0,70.0,-100.00,NNE,21,5.0,8.0,93,0.00,,,0.06,0.000000,,2013-08-16 08:01:00,
2013-08-16 03:42:00,70.0,67.0,-100.00,NNE,19,5.0,8.0,90,0.00,,,-99.99,0.000000,,2013-08-16 08:42:00,
2013-08-16 03:52:00,70.0,67.0,-100.00,NNE,19,5.0,8.0,90,0.00,,,-99.99,0.000000,,2013-08-16 08:52:00,
2013-08-16 04:01:00,70.0,67.0,-100.00,NNE,19,5.0,8.0,90,0.00,,,-99.99,0.000000,,2013-08-16 09:01:00,
2013-08-16 04:42:00,69.0,66.0,-100.00,NNE,32,3.0,7.0,91,0.00,,,0.06,0.000000,,2013-08-16 09:42:00,
2013-08-16 04:53:00,69.0,66.0,-100.00,NNE,32,3.0,7.0,91,0.00,,,0.06,0.000000,,2013-08-16 09:53:00,
2013-08-16 05:03:00,69.0,66.0,-100.00,NNE,32,3.0,7.0,91,0.00,,,0.06,0.000000,,2013-08-16 10:03:00,
2013-08-16 05:42:00,68.0,66.0,-100.00,NNE,32,5.0,7.0,93,0.00,,,0.06,0.000000,,2013-08-16 10:42:00,
2013-08-16 05:53:00,68.0,66.0,-100.00,NNE,32,5.0,7.0,93,0.00,,,0.06,0.000000,,2013-08-16 10:53:00,
2013-08-16 06:02:00,68.0,66.0,-100.00,NNE,32,5.0,7.0,93,0.00,,,0.06,0.000000,,2013-08-16 11:02:00,
2013-08-16 06:42:00,68.0,66.0,-100.00,North,359,5.0,8.0,94,0.00,,,0.06,0.000000,,2013-08-16 11:42:00,
2013-08-16 06:52:00,68.0,66.0,-100.00,North,359,5.0,8.0,94,0.00,,,0.06,0.000000,,2013-08-16 11:52:00,
2013-08-16 07:02:00,68.0,66.0,-100.00,North,359,5.0,8.0,94,0.00,,,0.06,0.000000,,2013-08-16 12:02:00,
2013-08-16 07:42:00,67.0,65.0,-100.00,NNE,25,5.0,8.0,93,0.00,,,0.04,3.000000,,2013-08-16 12:42:00,
2013-08-16 07:52:00,67.0,65.0,-100.00,NNE,25,5.0,8.0,93,0.00,,,0.04,3.000000,,2013-08-16 12:52:00,
2013-08-16 08:02:00,67.0,65.0,-100.00,NNE,25,5.0,8.0,93,0.00,,,0.04,3.000000,,2013-08-16 13:02:00,
2013-08-16 08:42:00,69.0,67.0,-100.00,NE,36,4.0,7.0,92,0.00,,,0.04,29.000000,,2013-08-16 13:42:00,
2013-08-16 08:53:00,69.0,67.0,-100.00,NE,36,4.0,7.0,92,0.00,,,0.04,29.000000,,2013-08-16 13:53:00,
2013-08-16 09:02:00,69.0,67.0,-100.00,NE,36,4.0,7.0,92,0.00,,,0.04,29.000000,,2013-08-16 14:02:00,
2013-08-16 09:42:00,72.0,68.0,-100.00,NE,42,5.0,10.0,88,0.00,,,0.04,56.000000,,2013-08-16 14:42:00,
2013-08-16 09:52:00,72.0,68.0,-100.00,NE,42,5.0,10.0,88,0.00,,,0.04,56.000000,,2013-08-16 14:52:00,
2013-08-16 10:01:00,72.0,68.0,-100.00,NE,42,5.0,10.0,88,0.00,,,0.04,56.000000,,2013-08-16 15:01:00,
2013-08-16 10:43:00,79.0,71.0,-100.00,NE,39,5.0,8.0,77,0.00,,,0.04,270.000000,,2013-08-16 15:43:00,
2013-08-16 10:56:00,79.0,71.0,-100.00,NE,39,5.0,8.0,77,0.00,,,0.04,270.000000,,2013-08-16 15:56:00,
2013-08-16 11:04:00,79.0,71.0,-100.00,NE,39,5.0,8.0,77,0.00,,,0.04,270.000000,,2013-08-16 16:04:00,
2013-08-16 11:44:00,85.0,70.0,-100.00,ENE,70,4.0,7.0,60,0.00,,,0.01,673.000000,,2013-08-16 16:44:00,
2013-08-16 11:57:00,85.0,70.0,-100.00,ENE,70,4.0,7.0,60,0.00,,,0.01,673.000000,,2013-08-16 16:57:00,
2013-08-16 12:03:00,85.0,70.0,-100.00,ENE,70,4.0,7.0,60,0.00,,,0.01,673.000000,,2013-08-16 17:03:00,
2013-08-16 12:05:00,88.0,71.0,-100.00,West,264,2.0,7.0,57,0.00,,,0.01,814.000000,,2013-08-16 17:05:00,
2013-08-16 12:47:00,88.0,71.0,-100.00,West,264,2.0,7.0,57,0.00,,,0.01,814.000000,,2013-08-16 17:47:00,
2013-08-16 13:00:00,88.0,71.0,-100.00,West,264,2.0,7.0,57,0.00,,,0.01,814.000000,,2013-08-16 18:00:00,
2013-08-16 13:50:00,-999.0,-99.9,-100.00,NW,311,4.0,10.0,52,0.00,,,0.00,903.000000,,2013-08-16 18:50:00,
2013-08-16 14:03:00,90.0,70.0,-100.00,NW,311,4.0,10.0,52,0.00,,,0.00,903.000000,,2013-08-16 19:03:00,
2013-08-16 14:46:00,92.0,69.0,-100.00,North,2,7.0,11.0,47,0.00,,,0.00,877.000000,,2013-08-16 19:46:00,
2013-08-16 14:55:00,92.0,69.0,-100.00,North,2,7.0,11.0,47,0.00,,,0.00,877.000000,,2013-08-16 19:55:00,
2013-08-16 15:02:00,92.0,69.0,-100.00,North,2,7.0,11.0,47,0.00,,,0.00,877.000000,,2013-08-16 20:02:00,
2013-08-16 15:44:00,93.0,70.0,-100.00,NE,35,5.0,10.0,47,0.00,,,0.00,666.000000,,2013-08-16 20:44:00,
2013-08-16 15:52:00,93.0,70.0,-100.00,NE,35,5.0,10.0,47,0.00,,,0.00,666.000000,,2013-08-16 20:52:00,
2013-08-16 16:01:00,93.0,70.0,-100.00,NE,35,5.0,10.0,47,0.00,,,0.00,666.000000,,2013-08-16 21:01:00,
2013-08-16 16:05:00,94.0,68.0,-100.00,NNE,29,5.0,13.0,43,0.00,,,0.00,760.000000,,2013-08-16 21:05:00,
2013-08-16 16:40:00,-999.0,-99.9,-100.00,NNE,29,5.0,13.0,-999,0.00,,,0.00,760.000000,,2013-08-16 21:40:00,
2013-08-16 16:54:00,94.0,68.0,-100.00,NNE,29,5.0,13.0,43,0.00,,,0.00,760.000000,,2013-08-16 21:54:00,
2013-08-16 17:05:00,88.0,69.0,-100.00,NE,49,3.0,11.0,53,0.00,,,0.00,321.000000,,2013-08-16 22:05:00,
2013-08-16 17:43:00,88.0,69.0,-100.00,NE,49,3.0,11.0,53,0.00,,,0.00,321.000000,,2013-08-16 22:43:00,
2013-08-16 17:52:00,88.0,69.0,-100.00,NE,49,3.0,11.0,53,0.00,,,0.00,321.000000,,2013-08-16 22:52:00,
2013-08-16 18:42:00,83.0,70.0,-100.00,NNE,31,4.0,8.0,66,0.00,,,0.00,96.000000,,2013-08-16 23:42:00,
2013-08-16 18:52:00,83.0,70.0,-100.00,NNE,31,4.0,8.0,66,0.00,,,0.00,96.000000,,2013-08-16 23:52:00,
2013-08-16 19:01:00,83.0,70.0,-100.00,NNE,31,4.0,8.0,66,0.00,,,0.00,96.000000,,2013-08-17 00:01:00,
2013-08-16 19:42:00,82.0,69.0,-100.00,NNE,19,4.0,6.0,66,0.00,,,0.00,80.000000,,2013-08-17 00:42:00,
2013-08-16 19:52:00,82.0,69.0,-100.00,NNE,19,4.0,6.0,66,0.00,,,0.00,80.000000,,2013-08-17 00:52:00,
2013-08-16 20:01:00,82.0,69.0,-100.00,NNE,19,4.0,6.0,66,0.00,,,0.00,80.000000,,2013-08-17 01:01:00,
2013-08-16 20:42:00,80.0,71.0,-100.00,NE,49,5.0,9.0,73,0.00,,,0.00,25.000000,,2013-08-17 01:42:00,
2013-08-16 20:52:00,80.0,71.0,-100.00,NE,49,5.0,9.0,73,0.00,,,0.00,25.000000,,2013-08-17 01:52:00,
2013-08-16 21:01:00,80.0,71.0,-100.00,NE,49,5.0,9.0,73,0.00,,,0.00,25.000000,,2013-08-17 02:01:00,
2013-08-16 21:42:00,78.0,68.0,-100.00,ENE,63,5.0,8.0,71,0.00,,,0.00,0.000000,,2013-08-17 02:42:00,
2013-08-16 21:52:00,78.0,68.0,-100.00,ENE,63,5.0,8.0,71,0.00,,,0.00,0.000000,,2013-08-17 02:52:00,
2013-08-16 22:02:00,78.0,68.0,-100.00,ENE,63,5.0,8.0,71,0.00,,,0.00,0.000000,,2013-08-17 03:02:00,
2013-08-16 22:43:00,75.0,67.0,-100.00,ENE,64,5.0,7.0,76,0.00,,,0.00,0.000000,,2013-08-17 03:43:00,
2013-08-16 22:53:00,75.0,67.0,-100.00,ENE,64,5.0,7.0,76,0.00,,,0.00,0.000000,,2013-08-17 03:53:00,
2013-08-16 23:03:00,75.0,67.0,-100.00,ENE,64,5.0,7.0,76,0.00,,,0.00,0.000000,,2013-08-17 04:03:00,
2013-08-16 23:44:00,74.0,68.0,-100.00,NNE,33,4.0,7.0,82,0.00,,,0.00,0.000000,,2013-08-17 04:44:00,
2013-08-16 23:53:00,74.0,68.0,-100.00,NNE,33,4.0,7.0,82,0.00,,,0.00,0.000000,,2013-08-17 04:53:00,